sensor_id;sensor_type;location;lat;lon;timestamp;P1;durP1;ratioP1;P2;durP2;ratioP2
6757;SDS011;3416;53.074;8.822;2023-05-10T00:01:14;6.63;;;3.13;;
6757;SDS011;3416;53.074;8.822;2023-05-10T00:03:41;3.80;;;3.23;;
6757;SDS011;3416;53.074;8.822;2023-05-10T00:06:08;6.40;;;3.33;;
6757;SDS011;3416;53.074;8.822;2023-05-10T00:08:36;9.17;;;3.10;;
6757;SDS011;3416;53.074;8.822;2023-05-10T00:11:03;5.57;;;4.27;;
6757;SDS011;3416;53.074;8.822;2023-05-10T00:13:30;8.70;;;4.37;;
6757;SDS011;3416;53.074;8.822;2023-05-10T00:15:57;9.30;;;4.47;;
6757;SDS011;3416;53.074;8.822;2023-05-10T00:18:25;7.70;;;3.47;;
6757;SDS011;3416;53.074;8.822;2023-05-10T00:20:52;6.53;;;3.80;;
6757;SDS011;3416;53.074;8.822;2023-05-10T00:23:19;6.97;;;4.93;;
6757;SDS011;3416;53.074;8.822;2023-05-10T00:25:46;5.87;;;4.07;;
6757;SDS011;3416;53.074;8.822;2023-05-10T00:28:13;9.70;;;4.40;;
6757;SDS011;3416;53.074;8.822;2023-05-10T00:30:40;9.70;;;4.80;;
6757;SDS011;3416;53.074;8.822;2023-05-10T00:33:07;5.53;;;3.80;;
6757;SDS011;3416;53.074;8.822;2023-05-10T00:35:35;8.13;;;4.30;;
6757;SDS011;3416;53.074;8.822;2023-05-10T00:38:03;8.87;;;4.97;;
6757;SDS011;3416;53.074;8.822;2023-05-10T00:40:30;6.80;;;3.53;;
6757;SDS011;3416;53.074;8.822;2023-05-10T00:42:57;5.70;;;3.40;;
6757;SDS011;3416;53.074;8.822;2023-05-10T00:45:24;6.50;;;3.30;;
6757;SDS011;3416;53.074;8.822;2023-05-10T00:47:52;4.50;;;3.17;;
6757;SDS011;3416;53.074;8.822;2023-05-10T00:50:20;3.20;;;2.90;;
6757;SDS011;3416;53.074;8.822;2023-05-10T00:52:48;3.90;;;3.50;;
6757;SDS011;3416;53.074;8.822;2023-05-10T00:55:16;3.27;;;2.97;;
6757;SDS011;3416;53.074;8.822;2023-05-10T00:57:43;3.53;;;3.23;;
6757;SDS011;3416;53.074;8.822;2023-05-10T01:00:11;10.20;;;3.63;;
6757;SDS011;3416;53.074;8.822;2023-05-10T01:02:42;4.67;;;3.50;;
6757;SDS011;3416;53.074;8.822;2023-05-10T01:05:10;3.77;;;3.10;;
6757;SDS011;3416;53.074;8.822;2023-05-10T01:07:37;6.30;;;3.23;;
6757;SDS011;3416;53.074;8.822;2023-05-10T01:10:06;4.93;;;3.70;;
6757;SDS011;3416;53.074;8.822;2023-05-10T01:12:34;3.77;;;3.30;;
6757;SDS011;3416;53.074;8.822;2023-05-10T01:15:04;5.27;;;4.10;;
6757;SDS011;3416;53.074;8.822;2023-05-10T01:17:33;7.27;;;5.20;;
6757;SDS011;3416;53.074;8.822;2023-05-10T01:20:00;8.30;;;5.10;;
6757;SDS011;3416;53.074;8.822;2023-05-10T01:22:36;8.33;;;5.43;;
6757;SDS011;3416;53.074;8.822;2023-05-10T01:25:25;11.00;;;5.10;;
6757;SDS011;3416;53.074;8.822;2023-05-10T01:28:14;5.83;;;4.30;;
6757;SDS011;3416;53.074;8.822;2023-05-10T01:31:03;6.20;;;4.70;;
6757;SDS011;3416;53.074;8.822;2023-05-10T01:33:40;6.67;;;4.23;;
6757;SDS011;3416;53.074;8.822;2023-05-10T01:36:13;8.47;;;5.07;;
6757;SDS011;3416;53.074;8.822;2023-05-10T01:38:51;5.87;;;4.30;;
6757;SDS011;3416;53.074;8.822;2023-05-10T01:41:24;4.40;;;3.60;;
6757;SDS011;3416;53.074;8.822;2023-05-10T01:44:02;5.17;;;3.67;;
6757;SDS011;3416;53.074;8.822;2023-05-10T01:46:36;7.97;;;5.10;;
6757;SDS011;3416;53.074;8.822;2023-05-10T01:49:07;6.60;;;3.95;;
6757;SDS011;3416;53.074;8.822;2023-05-10T01:51:36;7.83;;;3.83;;
6757;SDS011;3416;53.074;8.822;2023-05-10T01:54:08;5.63;;;4.00;;
6757;SDS011;3416;53.074;8.822;2023-05-10T01:56:38;6.93;;;4.03;;
6757;SDS011;3416;53.074;8.822;2023-05-10T01:59:09;5.70;;;3.70;;
6757;SDS011;3416;53.074;8.822;2023-05-10T02:01:39;4.43;;;3.93;;
6757;SDS011;3416;53.074;8.822;2023-05-10T02:04:08;5.40;;;3.80;;
6757;SDS011;3416;53.074;8.822;2023-05-10T02:06:38;5.60;;;4.20;;
6757;SDS011;3416;53.074;8.822;2023-05-10T02:09:06;6.70;;;4.93;;
6757;SDS011;3416;53.074;8.822;2023-05-10T02:11:34;7.27;;;3.90;;
6757;SDS011;3416;53.074;8.822;2023-05-10T02:14:03;4.20;;;3.60;;
6757;SDS011;3416;53.074;8.822;2023-05-10T02:16:33;5.30;;;3.70;;
6757;SDS011;3416;53.074;8.822;2023-05-10T02:19:02;7.43;;;3.97;;
6757;SDS011;3416;53.074;8.822;2023-05-10T02:21:31;5.22;;;4.25;;
6757;SDS011;3416;53.074;8.822;2023-05-10T02:24:00;7.55;;;3.47;;
6757;SDS011;3416;53.074;8.822;2023-05-10T02:26:29;6.97;;;3.80;;
6757;SDS011;3416;53.074;8.822;2023-05-10T02:28:59;6.10;;;4.00;;
6757;SDS011;3416;53.074;8.822;2023-05-10T02:31:29;7.55;;;4.25;;
6757;SDS011;3416;53.074;8.822;2023-05-10T02:33:58;12.97;;;3.67;;
6757;SDS011;3416;53.074;8.822;2023-05-10T02:36:26;5.40;;;3.43;;
6757;SDS011;3416;53.074;8.822;2023-05-10T02:38:55;6.50;;;3.60;;
6757;SDS011;3416;53.074;8.822;2023-05-10T02:41:23;5.80;;;3.60;;
6757;SDS011;3416;53.074;8.822;2023-05-10T02:43:51;8.57;;;4.35;;
6757;SDS011;3416;53.074;8.822;2023-05-10T02:46:23;10.13;;;3.70;;
6757;SDS011;3416;53.074;8.822;2023-05-10T02:48:50;4.97;;;3.85;;
6757;SDS011;3416;53.074;8.822;2023-05-10T02:51:18;4.77;;;3.60;;
6757;SDS011;3416;53.074;8.822;2023-05-10T02:53:50;5.03;;;3.60;;
6757;SDS011;3416;53.074;8.822;2023-05-10T02:56:23;4.80;;;3.78;;
6757;SDS011;3416;53.074;8.822;2023-05-10T02:58:55;4.22;;;3.53;;
6757;SDS011;3416;53.074;8.822;2023-05-10T03:01:22;5.85;;;3.90;;
6757;SDS011;3416;53.074;8.822;2023-05-10T03:03:49;4.90;;;4.00;;
6757;SDS011;3416;53.074;8.822;2023-05-10T03:06:16;5.50;;;4.17;;
6757;SDS011;3416;53.074;8.822;2023-05-10T03:08:43;6.40;;;4.55;;
6757;SDS011;3416;53.074;8.822;2023-05-10T03:14:04;7.03;;;4.07;;
6757;SDS011;3416;53.074;8.822;2023-05-10T03:16:39;4.82;;;4.20;;
6757;SDS011;3416;53.074;8.822;2023-05-10T03:19:11;4.68;;;4.15;;
6757;SDS011;3416;53.074;8.822;2023-05-10T03:21:44;5.00;;;4.50;;
6757;SDS011;3416;53.074;8.822;2023-05-10T03:24:16;5.03;;;4.50;;
6757;SDS011;3416;53.074;8.822;2023-05-10T03:29:38;3.80;;;3.50;;
6757;SDS011;3416;53.074;8.822;2023-05-10T03:32:05;5.40;;;3.95;;
6757;SDS011;3416;53.074;8.822;2023-05-10T03:34:33;5.65;;;3.83;;
6757;SDS011;3416;53.074;8.822;2023-05-10T03:37:01;5.70;;;5.07;;
6757;SDS011;3416;53.074;8.822;2023-05-10T03:39:28;5.82;;;4.70;;
6757;SDS011;3416;53.074;8.822;2023-05-10T03:41:55;7.82;;;4.90;;
6757;SDS011;3416;53.074;8.822;2023-05-10T03:44:23;7.53;;;6.53;;
6757;SDS011;3416;53.074;8.822;2023-05-10T03:46:50;8.52;;;4.78;;
6757;SDS011;3416;53.074;8.822;2023-05-10T03:49:17;10.20;;;4.63;;
6757;SDS011;3416;53.074;8.822;2023-05-10T03:51:44;5.97;;;4.80;;
6757;SDS011;3416;53.074;8.822;2023-05-10T03:54:11;5.97;;;5.38;;
6757;SDS011;3416;53.074;8.822;2023-05-10T03:56:38;4.97;;;4.47;;
6757;SDS011;3416;53.074;8.822;2023-05-10T03:59:05;8.57;;;4.65;;
6757;SDS011;3416;53.074;8.822;2023-05-10T04:01:35;8.93;;;4.30;;
6757;SDS011;3416;53.074;8.822;2023-05-10T04:04:02;9.10;;;5.20;;
6757;SDS011;3416;53.074;8.822;2023-05-10T04:06:29;6.72;;;4.75;;
6757;SDS011;3416;53.074;8.822;2023-05-10T04:08:57;5.78;;;5.18;;
6757;SDS011;3416;53.074;8.822;2023-05-10T04:11:25;9.27;;;6.38;;
6757;SDS011;3416;53.074;8.822;2023-05-10T04:13:52;5.07;;;4.18;;
6757;SDS011;3416;53.074;8.822;2023-05-10T04:16:20;5.20;;;4.25;;
6757;SDS011;3416;53.074;8.822;2023-05-10T04:18:48;7.05;;;4.60;;
6757;SDS011;3416;53.074;8.822;2023-05-10T04:21:15;6.00;;;4.95;;
6757;SDS011;3416;53.074;8.822;2023-05-10T04:23:42;6.53;;;5.75;;
6757;SDS011;3416;53.074;8.822;2023-05-10T04:26:09;5.90;;;4.65;;
6757;SDS011;3416;53.074;8.822;2023-05-10T04:28:37;7.30;;;4.85;;
6757;SDS011;3416;53.074;8.822;2023-05-10T04:31:04;10.60;;;6.35;;
6757;SDS011;3416;53.074;8.822;2023-05-10T04:33:31;5.82;;;5.25;;
6757;SDS011;3416;53.074;8.822;2023-05-10T04:36:00;6.90;;;6.30;;
6757;SDS011;3416;53.074;8.822;2023-05-10T04:38:30;6.20;;;5.53;;
6757;SDS011;3416;53.074;8.822;2023-05-10T04:41:03;6.03;;;5.53;;
6757;SDS011;3416;53.074;8.822;2023-05-10T04:43:31;7.00;;;6.18;;
6757;SDS011;3416;53.074;8.822;2023-05-10T04:45:58;11.35;;;5.60;;
6757;SDS011;3416;53.074;8.822;2023-05-10T04:48:25;6.63;;;5.75;;
6757;SDS011;3416;53.074;8.822;2023-05-10T04:50:52;9.40;;;5.82;;
6757;SDS011;3416;53.074;8.822;2023-05-10T04:53:20;9.70;;;6.75;;
6757;SDS011;3416;53.074;8.822;2023-05-10T04:55:47;9.55;;;7.18;;
6757;SDS011;3416;53.074;8.822;2023-05-10T04:58:14;13.60;;;9.80;;
6757;SDS011;3416;53.074;8.822;2023-05-10T05:00:41;10.63;;;7.13;;
6757;SDS011;3416;53.074;8.822;2023-05-10T05:03:09;9.18;;;7.53;;
6757;SDS011;3416;53.074;8.822;2023-05-10T05:05:37;7.72;;;6.78;;
6757;SDS011;3416;53.074;8.822;2023-05-10T05:08:03;8.43;;;7.63;;
6757;SDS011;3416;53.074;8.822;2023-05-10T05:10:32;7.50;;;6.68;;
6757;SDS011;3416;53.074;8.822;2023-05-10T05:12:59;8.80;;;7.55;;
6757;SDS011;3416;53.074;8.822;2023-05-10T05:15:26;7.95;;;7.15;;
6757;SDS011;3416;53.074;8.822;2023-05-10T05:17:53;10.00;;;7.72;;
6757;SDS011;3416;53.074;8.822;2023-05-10T05:20:27;8.75;;;7.70;;
6757;SDS011;3416;53.074;8.822;2023-05-10T05:22:54;7.75;;;7.00;;
6757;SDS011;3416;53.074;8.822;2023-05-10T05:25:21;8.50;;;6.38;;
6757;SDS011;3416;53.074;8.822;2023-05-10T05:27:49;9.35;;;8.55;;
6757;SDS011;3416;53.074;8.822;2023-05-10T05:30:16;10.18;;;8.15;;
6757;SDS011;3416;53.074;8.822;2023-05-10T05:32:43;9.65;;;7.53;;
6757;SDS011;3416;53.074;8.822;2023-05-10T05:35:12;9.93;;;7.90;;
6757;SDS011;3416;53.074;8.822;2023-05-10T05:37:39;10.95;;;8.07;;
6757;SDS011;3416;53.074;8.822;2023-05-10T05:40:06;8.10;;;7.30;;
6757;SDS011;3416;53.074;8.822;2023-05-10T05:42:34;9.15;;;8.23;;
6757;SDS011;3416;53.074;8.822;2023-05-10T05:45:03;10.40;;;9.30;;
6757;SDS011;3416;53.074;8.822;2023-05-10T05:47:30;8.10;;;7.28;;
6757;SDS011;3416;53.074;8.822;2023-05-10T05:49:57;11.82;;;8.75;;
6757;SDS011;3416;53.074;8.822;2023-05-10T05:52:24;7.55;;;6.85;;
6757;SDS011;3416;53.074;8.822;2023-05-10T05:54:51;8.77;;;7.88;;
6757;SDS011;3416;53.074;8.822;2023-05-10T05:57:18;9.25;;;7.45;;
6757;SDS011;3416;53.074;8.822;2023-05-10T05:59:45;10.02;;;9.02;;
6757;SDS011;3416;53.074;8.822;2023-05-10T06:02:13;10.38;;;8.85;;
6757;SDS011;3416;53.074;8.822;2023-05-10T06:04:40;12.57;;;9.10;;
6757;SDS011;3416;53.074;8.822;2023-05-10T06:07:07;10.15;;;9.15;;
6757;SDS011;3416;53.074;8.822;2023-05-10T06:09:34;10.77;;;9.77;;
6757;SDS011;3416;53.074;8.822;2023-05-10T06:12:00;12.18;;;9.43;;
6757;SDS011;3416;53.074;8.822;2023-05-10T06:14:27;11.15;;;10.05;;
6757;SDS011;3416;53.074;8.822;2023-05-10T06:16:54;13.90;;;9.90;;
6757;SDS011;3416;53.074;8.822;2023-05-10T06:19:23;12.63;;;10.45;;
6757;SDS011;3416;53.074;8.822;2023-05-10T06:21:51;16.38;;;10.93;;
6757;SDS011;3416;53.074;8.822;2023-05-10T06:24:18;16.23;;;11.00;;
6757;SDS011;3416;53.074;8.822;2023-05-10T06:26:45;12.68;;;10.60;;
6757;SDS011;3416;53.074;8.822;2023-05-10T06:29:12;11.98;;;9.43;;
6757;SDS011;3416;53.074;8.822;2023-05-10T06:31:40;11.98;;;10.77;;
6757;SDS011;3416;53.074;8.822;2023-05-10T06:34:07;23.48;;;13.18;;
6757;SDS011;3416;53.074;8.822;2023-05-10T06:36:35;15.98;;;11.45;;
6757;SDS011;3416;53.074;8.822;2023-05-10T06:39:02;14.88;;;12.00;;
6757;SDS011;3416;53.074;8.822;2023-05-10T06:41:29;13.68;;;12.13;;
6757;SDS011;3416;53.074;8.822;2023-05-10T06:43:56;13.45;;;12.05;;
6757;SDS011;3416;53.074;8.822;2023-05-10T06:46:23;15.82;;;12.85;;
6757;SDS011;3416;53.074;8.822;2023-05-10T06:48:50;16.02;;;13.90;;
6757;SDS011;3416;53.074;8.822;2023-05-10T06:51:18;15.82;;;13.30;;
6757;SDS011;3416;53.074;8.822;2023-05-10T06:53:47;13.38;;;12.07;;
6757;SDS011;3416;53.074;8.822;2023-05-10T06:56:14;13.00;;;10.68;;
6757;SDS011;3416;53.074;8.822;2023-05-10T06:58:41;15.95;;;13.00;;
6757;SDS011;3416;53.074;8.822;2023-05-10T07:01:08;13.15;;;11.60;;
6757;SDS011;3416;53.074;8.822;2023-05-10T07:03:35;13.30;;;11.15;;
6757;SDS011;3416;53.074;8.822;2023-05-10T07:06:02;17.98;;;14.25;;
6757;SDS011;3416;53.074;8.822;2023-05-10T07:08:30;13.18;;;10.20;;
6757;SDS011;3416;53.074;8.822;2023-05-10T07:11:01;13.88;;;12.48;;
6757;SDS011;3416;53.074;8.822;2023-05-10T07:13:29;15.55;;;12.90;;
6757;SDS011;3416;53.074;8.822;2023-05-10T07:15:57;17.77;;;12.77;;
6757;SDS011;3416;53.074;8.822;2023-05-10T07:18:24;12.95;;;11.70;;
6757;SDS011;3416;53.074;8.822;2023-05-10T07:20:51;14.40;;;12.90;;
6757;SDS011;3416;53.074;8.822;2023-05-10T07:23:18;16.98;;;13.82;;
6757;SDS011;3416;53.074;8.822;2023-05-10T07:25:45;18.70;;;13.27;;
6757;SDS011;3416;53.074;8.822;2023-05-10T07:28:14;18.48;;;13.52;;
6757;SDS011;3416;53.074;8.822;2023-05-10T07:30:42;15.52;;;13.02;;
6757;SDS011;3416;53.074;8.822;2023-05-10T07:33:09;13.20;;;11.90;;
6757;SDS011;3416;53.074;8.822;2023-05-10T07:35:39;14.13;;;11.45;;
6757;SDS011;3416;53.074;8.822;2023-05-10T07:38:06;12.55;;;11.27;;
6757;SDS011;3416;53.074;8.822;2023-05-10T07:40:33;11.48;;;9.55;;
6757;SDS011;3416;53.074;8.822;2023-05-10T07:42:59;14.00;;;12.70;;
6757;SDS011;3416;53.074;8.822;2023-05-10T07:45:28;15.30;;;13.63;;
6757;SDS011;3416;53.074;8.822;2023-05-10T07:47:55;15.50;;;14.10;;
6757;SDS011;3416;53.074;8.822;2023-05-10T07:50:22;16.83;;;14.10;;
6757;SDS011;3416;53.074;8.822;2023-05-10T07:52:49;14.95;;;12.73;;
6757;SDS011;3416;53.074;8.822;2023-05-10T07:55:17;17.52;;;14.60;;
6757;SDS011;3416;53.074;8.822;2023-05-10T07:57:46;16.73;;;15.00;;
6757;SDS011;3416;53.074;8.822;2023-05-10T08:00:16;15.25;;;11.57;;
6757;SDS011;3416;53.074;8.822;2023-05-10T08:02:46;14.90;;;13.40;;
6757;SDS011;3416;53.074;8.822;2023-05-10T08:05:13;16.38;;;12.75;;
6757;SDS011;3416;53.074;8.822;2023-05-10T08:07:40;14.20;;;12.80;;
6757;SDS011;3416;53.074;8.822;2023-05-10T08:10:08;10.93;;;8.80;;
6757;SDS011;3416;53.074;8.822;2023-05-10T08:12:37;8.07;;;6.45;;
6757;SDS011;3416;53.074;8.822;2023-05-10T08:15:05;6.10;;;5.50;;
6757;SDS011;3416;53.074;8.822;2023-05-10T08:17:33;5.68;;;5.15;;
6757;SDS011;3416;53.074;8.822;2023-05-10T08:20:01;5.97;;;5.15;;
6757;SDS011;3416;53.074;8.822;2023-05-10T08:22:28;6.13;;;4.85;;
6757;SDS011;3416;53.074;8.822;2023-05-10T08:24:56;6.90;;;6.20;;
6757;SDS011;3416;53.074;8.822;2023-05-10T08:27:23;6.80;;;6.10;;
6757;SDS011;3416;53.074;8.822;2023-05-10T08:29:51;6.33;;;5.03;;
6757;SDS011;3416;53.074;8.822;2023-05-10T08:32:18;5.50;;;5.00;;
6757;SDS011;3416;53.074;8.822;2023-05-10T08:34:46;5.57;;;5.00;;
6757;SDS011;3416;53.074;8.822;2023-05-10T08:37:14;5.57;;;4.97;;
6757;SDS011;3416;53.074;8.822;2023-05-10T08:39:41;5.77;;;5.17;;
6757;SDS011;3416;53.074;8.822;2023-05-10T08:42:08;6.73;;;6.10;;
6757;SDS011;3416;53.074;8.822;2023-05-10T08:44:36;7.20;;;6.47;;
6757;SDS011;3416;53.074;8.822;2023-05-10T08:47:04;8.87;;;8.00;;
6757;SDS011;3416;53.074;8.822;2023-05-10T08:49:33;7.10;;;6.20;;
6757;SDS011;3416;53.074;8.822;2023-05-10T08:52:01;7.30;;;6.60;;
6757;SDS011;3416;53.074;8.822;2023-05-10T08:54:32;8.10;;;7.40;;
6757;SDS011;3416;53.074;8.822;2023-05-10T08:57:01;7.63;;;6.87;;
6757;SDS011;3416;53.074;8.822;2023-05-10T08:59:28;8.20;;;7.40;;
6757;SDS011;3416;53.074;8.822;2023-05-10T09:02:05;6.90;;;5.77;;
6757;SDS011;3416;53.074;8.822;2023-05-10T09:04:34;5.33;;;4.83;;
6757;SDS011;3416;53.074;8.822;2023-05-10T09:07:01;4.63;;;4.20;;
6757;SDS011;3416;53.074;8.822;2023-05-10T09:09:28;5.73;;;3.60;;
6757;SDS011;3416;53.074;8.822;2023-05-10T09:11:59;2.80;;;2.50;;
6757;SDS011;3416;53.074;8.822;2023-05-10T09:14:26;4.33;;;2.90;;
6757;SDS011;3416;53.074;8.822;2023-05-10T09:16:54;3.00;;;2.70;;
6757;SDS011;3416;53.074;8.822;2023-05-10T09:19:22;2.70;;;2.50;;
6757;SDS011;3416;53.074;8.822;2023-05-10T09:21:49;2.40;;;2.20;;
6757;SDS011;3416;53.074;8.822;2023-05-10T09:24:16;2.10;;;1.90;;
6757;SDS011;3416;53.074;8.822;2023-05-10T09:26:46;2.87;;;2.40;;
6757;SDS011;3416;53.074;8.822;2023-05-10T09:29:16;2.87;;;2.00;;
6757;SDS011;3416;53.074;8.822;2023-05-10T09:31:44;3.57;;;3.20;;
6757;SDS011;3416;53.074;8.822;2023-05-10T09:34:16;3.63;;;3.33;;
6757;SDS011;3416;53.074;8.822;2023-05-10T09:36:53;4.73;;;3.93;;
6757;SDS011;3416;53.074;8.822;2023-05-10T09:39:21;7.67;;;4.30;;
6757;SDS011;3416;53.074;8.822;2023-05-10T09:41:57;4.93;;;4.17;;
6757;SDS011;3416;53.074;8.822;2023-05-10T09:44:26;5.40;;;4.37;;
6757;SDS011;3416;53.074;8.822;2023-05-10T09:46:53;6.17;;;5.60;;
6757;SDS011;3416;53.074;8.822;2023-05-10T09:49:20;5.60;;;5.10;;
6757;SDS011;3416;53.074;8.822;2023-05-10T09:51:47;16.63;;;8.40;;
6757;SDS011;3416;53.074;8.822;2023-05-10T09:54:28;4.70;;;4.17;;
6757;SDS011;3416;53.074;8.822;2023-05-10T09:56:55;8.93;;;5.17;;
6757;SDS011;3416;53.074;8.822;2023-05-10T09:59:22;5.93;;;5.33;;
6757;SDS011;3416;53.074;8.822;2023-05-10T10:01:53;6.43;;;5.83;;
6757;SDS011;3416;53.074;8.822;2023-05-10T10:04:22;5.33;;;4.83;;
6757;SDS011;3416;53.074;8.822;2023-05-10T10:06:58;6.30;;;5.10;;
6757;SDS011;3416;53.074;8.822;2023-05-10T10:09:25;5.00;;;4.47;;
6757;SDS011;3416;53.074;8.822;2023-05-10T10:11:53;5.07;;;4.53;;
6757;SDS011;3416;53.074;8.822;2023-05-10T10:14:20;5.53;;;4.50;;
6757;SDS011;3416;53.074;8.822;2023-05-10T10:16:48;5.10;;;4.60;;
6757;SDS011;3416;53.074;8.822;2023-05-10T10:19:17;6.40;;;4.97;;
6757;SDS011;3416;53.074;8.822;2023-05-10T10:21:44;3.80;;;3.47;;
6757;SDS011;3416;53.074;8.822;2023-05-10T10:24:13;3.10;;;2.80;;
6757;SDS011;3416;53.074;8.822;2023-05-10T10:26:40;4.20;;;3.40;;
6757;SDS011;3416;53.074;8.822;2023-05-10T10:29:12;4.10;;;3.63;;
6757;SDS011;3416;53.074;8.822;2023-05-10T10:31:48;5.80;;;4.10;;
6757;SDS011;3416;53.074;8.822;2023-05-10T10:34:26;3.83;;;3.50;;
6757;SDS011;3416;53.074;8.822;2023-05-10T10:36:55;5.20;;;4.23;;
6757;SDS011;3416;53.074;8.822;2023-05-10T10:39:23;4.70;;;3.90;;
6757;SDS011;3416;53.074;8.822;2023-05-10T10:41:51;4.50;;;4.10;;
6757;SDS011;3416;53.074;8.822;2023-05-10T10:44:23;4.93;;;4.53;;
6757;SDS011;3416;53.074;8.822;2023-05-10T10:47:05;3.70;;;3.40;;
6757;SDS011;3416;53.074;8.822;2023-05-10T10:49:43;3.93;;;3.50;;
6757;SDS011;3416;53.074;8.822;2023-05-10T10:52:20;3.90;;;3.40;;
6757;SDS011;3416;53.074;8.822;2023-05-10T10:54:52;5.73;;;3.60;;
6757;SDS011;3416;53.074;8.822;2023-05-10T10:57:21;3.97;;;3.10;;
6757;SDS011;3416;53.074;8.822;2023-05-10T10:59:48;6.50;;;3.33;;
6757;SDS011;3416;53.074;8.822;2023-05-10T11:05:25;5.80;;;4.40;;
6757;SDS011;3416;53.074;8.822;2023-05-10T11:08:02;3.83;;;2.30;;
6757;SDS011;3416;53.074;8.822;2023-05-10T11:10:36;3.47;;;2.40;;
6757;SDS011;3416;53.074;8.822;2023-05-10T11:13:05;3.43;;;3.00;;
6757;SDS011;3416;53.074;8.822;2023-05-10T11:15:33;3.60;;;3.30;;
6757;SDS011;3416;53.074;8.822;2023-05-10T11:18:15;4.50;;;3.47;;
6757;SDS011;3416;53.074;8.822;2023-05-10T11:20:45;3.03;;;2.83;;
6757;SDS011;3416;53.074;8.822;2023-05-10T11:23:17;3.93;;;3.63;;
6757;SDS011;3416;53.074;8.822;2023-05-10T11:25:45;4.53;;;4.13;;
6757;SDS011;3416;53.074;8.822;2023-05-10T11:28:13;3.73;;;3.30;;
6757;SDS011;3416;53.074;8.822;2023-05-10T11:30:42;4.70;;;3.53;;
6757;SDS011;3416;53.074;8.822;2023-05-10T11:33:14;5.90;;;4.00;;
6757;SDS011;3416;53.074;8.822;2023-05-10T11:35:42;5.30;;;4.83;;
6757;SDS011;3416;53.074;8.822;2023-05-10T11:38:11;4.50;;;4.07;;
6757;SDS011;3416;53.074;8.822;2023-05-10T11:40:41;6.33;;;5.70;;
6757;SDS011;3416;53.074;8.822;2023-05-10T11:43:09;3.37;;;2.77;;
6757;SDS011;3416;53.074;8.822;2023-05-10T11:45:37;3.93;;;3.63;;
6757;SDS011;3416;53.074;8.822;2023-05-10T11:48:06;3.30;;;2.93;;
6757;SDS011;3416;53.074;8.822;2023-05-10T11:50:33;4.20;;;3.10;;
6757;SDS011;3416;53.074;8.822;2023-05-10T11:53:01;6.80;;;3.30;;
6757;SDS011;3416;53.074;8.822;2023-05-10T11:55:28;5.90;;;3.20;;
6757;SDS011;3416;53.074;8.822;2023-05-10T11:58:01;6.37;;;3.30;;
6757;SDS011;3416;53.074;8.822;2023-05-10T12:00:28;1.60;;;1.30;;
6757;SDS011;3416;53.074;8.822;2023-05-10T12:02:57;2.07;;;1.60;;
6757;SDS011;3416;53.074;8.822;2023-05-10T12:05:24;2.80;;;2.00;;
6757;SDS011;3416;53.074;8.822;2023-05-10T12:07:53;1.40;;;1.30;;
6757;SDS011;3416;53.074;8.822;2023-05-10T12:10:38;3.50;;;1.70;;
6757;SDS011;3416;53.074;8.822;2023-05-10T12:13:06;1.77;;;1.43;;
6757;SDS011;3416;53.074;8.822;2023-05-10T12:15:37;3.20;;;1.23;;
6757;SDS011;3416;53.074;8.822;2023-05-10T12:18:05;1.83;;;1.10;;
6757;SDS011;3416;53.074;8.822;2023-05-10T12:20:34;1.60;;;1.47;;
6757;SDS011;3416;53.074;8.822;2023-05-10T12:23:01;1.60;;;1.50;;
6757;SDS011;3416;53.074;8.822;2023-05-10T12:25:30;1.83;;;1.70;;
6757;SDS011;3416;53.074;8.822;2023-05-10T12:27:59;1.40;;;1.30;;
6757;SDS011;3416;53.074;8.822;2023-05-10T12:30:29;1.47;;;1.37;;
6757;SDS011;3416;53.074;8.822;2023-05-10T12:32:59;1.40;;;1.30;;
6757;SDS011;3416;53.074;8.822;2023-05-10T12:35:29;1.20;;;1.00;;
6757;SDS011;3416;53.074;8.822;2023-05-10T12:37:57;2.47;;;1.83;;
6757;SDS011;3416;53.074;8.822;2023-05-10T12:40:24;1.47;;;0.97;;
6757;SDS011;3416;53.074;8.822;2023-05-10T12:42:52;1.37;;;0.70;;
6757;SDS011;3416;53.074;8.822;2023-05-10T12:45:19;1.33;;;1.00;;
6757;SDS011;3416;53.074;8.822;2023-05-10T12:47:47;11.03;;;4.37;;
6757;SDS011;3416;53.074;8.822;2023-05-10T12:50:14;2.77;;;1.00;;
6757;SDS011;3416;53.074;8.822;2023-05-10T12:52:41;1.47;;;1.03;;
6757;SDS011;3416;53.074;8.822;2023-05-10T12:55:08;3.43;;;1.43;;
6757;SDS011;3416;53.074;8.822;2023-05-10T12:57:35;2.23;;;2.00;;
6757;SDS011;3416;53.074;8.822;2023-05-10T13:00:03;5.00;;;1.77;;
6757;SDS011;3416;53.074;8.822;2023-05-10T13:02:33;2.00;;;1.80;;
6757;SDS011;3416;53.074;8.822;2023-05-10T13:05:00;1.90;;;1.80;;
6757;SDS011;3416;53.074;8.822;2023-05-10T13:07:27;2.77;;;2.13;;
6757;SDS011;3416;53.074;8.822;2023-05-10T13:09:54;3.77;;;3.40;;
6757;SDS011;3416;53.074;8.822;2023-05-10T13:12:21;2.67;;;2.47;;
6757;SDS011;3416;53.074;8.822;2023-05-10T13:14:48;3.40;;;3.10;;
6757;SDS011;3416;53.074;8.822;2023-05-10T13:17:16;3.50;;;3.20;;
6757;SDS011;3416;53.074;8.822;2023-05-10T13:19:43;4.43;;;4.03;;
6757;SDS011;3416;53.074;8.822;2023-05-10T13:22:10;4.30;;;3.90;;
6757;SDS011;3416;53.074;8.822;2023-05-10T13:24:37;3.93;;;3.53;;
6757;SDS011;3416;53.074;8.822;2023-05-10T13:27:04;3.63;;;3.30;;
6757;SDS011;3416;53.074;8.822;2023-05-10T13:29:30;4.00;;;3.23;;
6757;SDS011;3416;53.074;8.822;2023-05-10T13:31:58;3.67;;;3.30;;
6757;SDS011;3416;53.074;8.822;2023-05-10T13:34:26;5.80;;;4.13;;
6757;SDS011;3416;53.074;8.822;2023-05-10T13:36:53;3.60;;;3.30;;
6757;SDS011;3416;53.074;8.822;2023-05-10T13:39:21;4.03;;;3.60;;
6757;SDS011;3416;53.074;8.822;2023-05-10T13:41:48;3.40;;;3.10;;
6757;SDS011;3416;53.074;8.822;2023-05-10T13:44:15;4.60;;;4.07;;
6757;SDS011;3416;53.074;8.822;2023-05-10T13:46:42;4.13;;;3.70;;
6757;SDS011;3416;53.074;8.822;2023-05-10T13:49:09;4.47;;;4.07;;
6757;SDS011;3416;53.074;8.822;2023-05-10T13:51:37;3.93;;;3.53;;
6757;SDS011;3416;53.074;8.822;2023-05-10T13:54:04;4.57;;;3.37;;
6757;SDS011;3416;53.074;8.822;2023-05-10T13:56:31;5.00;;;3.80;;
6757;SDS011;3416;53.074;8.822;2023-05-10T13:58:58;6.53;;;3.40;;
6757;SDS011;3416;53.074;8.822;2023-05-10T14:01:25;3.23;;;2.93;;
6757;SDS011;3416;53.074;8.822;2023-05-10T14:03:52;3.67;;;3.33;;
6757;SDS011;3416;53.074;8.822;2023-05-10T14:06:19;4.40;;;2.90;;
6757;SDS011;3416;53.074;8.822;2023-05-10T14:08:48;3.57;;;3.27;;
6757;SDS011;3416;53.074;8.822;2023-05-10T14:11:15;4.40;;;3.00;;
6757;SDS011;3416;53.074;8.822;2023-05-10T14:13:42;4.00;;;3.60;;
6757;SDS011;3416;53.074;8.822;2023-05-10T14:16:09;5.53;;;2.97;;
6757;SDS011;3416;53.074;8.822;2023-05-10T14:18:36;5.90;;;3.93;;
6757;SDS011;3416;53.074;8.822;2023-05-10T14:21:03;3.67;;;3.37;;
6757;SDS011;3416;53.074;8.822;2023-05-10T14:23:30;4.80;;;3.67;;
6757;SDS011;3416;53.074;8.822;2023-05-10T14:25:59;6.83;;;3.27;;
6757;SDS011;3416;53.074;8.822;2023-05-10T14:28:26;3.90;;;3.50;;
6757;SDS011;3416;53.074;8.822;2023-05-10T14:30:53;3.27;;;3.00;;
6757;SDS011;3416;53.074;8.822;2023-05-10T14:33:20;3.60;;;3.30;;
6757;SDS011;3416;53.074;8.822;2023-05-10T14:35:47;3.40;;;3.10;;
6757;SDS011;3416;53.074;8.822;2023-05-10T14:38:14;3.50;;;3.17;;
6757;SDS011;3416;53.074;8.822;2023-05-10T14:40:41;3.80;;;3.30;;
6757;SDS011;3416;53.074;8.822;2023-05-10T14:43:10;3.03;;;2.73;;
6757;SDS011;3416;53.074;8.822;2023-05-10T14:45:37;4.60;;;3.80;;
6757;SDS011;3416;53.074;8.822;2023-05-10T14:48:04;3.40;;;3.10;;
6757;SDS011;3416;53.074;8.822;2023-05-10T14:50:31;6.37;;;3.30;;
6757;SDS011;3416;53.074;8.822;2023-05-10T14:52:58;4.80;;;3.30;;
6757;SDS011;3416;53.074;8.822;2023-05-10T14:55:25;4.27;;;3.97;;
6757;SDS011;3416;53.074;8.822;2023-05-10T14:57:52;4.27;;;3.87;;
6757;SDS011;3416;53.074;8.822;2023-05-10T15:00:21;3.90;;;3.50;;
6757;SDS011;3416;53.074;8.822;2023-05-10T15:02:48;3.40;;;3.10;;
6757;SDS011;3416;53.074;8.822;2023-05-10T15:05:15;3.97;;;3.67;;
6757;SDS011;3416;53.074;8.822;2023-05-10T15:07:42;5.83;;;4.20;;
6757;SDS011;3416;53.074;8.822;2023-05-10T15:10:11;4.60;;;3.13;;
6757;SDS011;3416;53.074;8.822;2023-05-10T15:12:38;4.23;;;3.50;;
6757;SDS011;3416;53.074;8.822;2023-05-10T15:15:06;5.03;;;3.67;;
6757;SDS011;3416;53.074;8.822;2023-05-10T15:17:34;3.77;;;2.93;;
6757;SDS011;3416;53.074;8.822;2023-05-10T15:20:04;3.80;;;3.13;;
6757;SDS011;3416;53.074;8.822;2023-05-10T15:22:31;3.60;;;3.30;;
6757;SDS011;3416;53.074;8.822;2023-05-10T15:24:58;4.50;;;3.53;;
6757;SDS011;3416;53.074;8.822;2023-05-10T15:27:25;4.40;;;4.00;;